createdAt,value
2023-03-27T00:01:13.045Z,2.72
2023-03-27T00:03:40.630Z,3.00
2023-03-27T00:06:11.531Z,1.67
2023-03-27T00:08:38.664Z,1.10
2023-03-27T00:11:08.253Z,2.08
2023-03-27T00:13:49.410Z,1.60
2023-03-27T00:16:23.875Z,2.35
2023-03-27T00:18:51.501Z,1.25
2023-03-27T00:21:18.629Z,1.58
2023-03-27T00:23:45.664Z,1.50
2023-03-27T00:26:12.957Z,1.85
2023-03-27T00:28:40.086Z,3.30
2023-03-27T00:31:12.297Z,2.00
2023-03-27T00:33:40.623Z,2.30
2023-03-27T00:36:08.852Z,1.92
2023-03-27T00:38:36.997Z,2.58
2023-03-27T00:41:05.059Z,2.05
2023-03-27T00:43:34.686Z,0.85
2023-03-27T00:46:14.855Z,1.83
2023-03-27T00:48:46.496Z,1.40
2023-03-27T00:51:14.618Z,2.35
2023-03-27T00:53:42.917Z,2.65
2023-03-27T00:56:10.667Z,3.13
2023-03-27T00:58:42.289Z,2.65
2023-03-27T01:01:12.218Z,0.88
2023-03-27T01:03:42.420Z,1.25
2023-03-27T01:06:14.125Z,1.40
2023-03-27T01:08:43.913Z,3.00
2023-03-27T01:11:22.549Z,3.23
2023-03-27T01:14:06.311Z,1.88
2023-03-27T01:16:40.542Z,5.18
2023-03-27T01:19:16.786Z,1.52
2023-03-27T01:22:17.206Z,2.47
2023-03-27T01:25:26.166Z,1.30
2023-03-27T01:28:13.057Z,1.75
2023-03-27T01:31:11.226Z,3.55
2023-03-27T01:33:47.262Z,1.85
2023-03-27T01:36:45.843Z,2.05
2023-03-27T01:39:36.205Z,1.85
2023-03-27T01:42:30.049Z,1.52
2023-03-27T01:45:03.685Z,2.50
2023-03-27T01:47:34.451Z,2.63
2023-03-27T01:50:21.365Z,1.52
2023-03-27T01:53:00.212Z,2.25
2023-03-27T01:55:32.798Z,2.08
2023-03-27T01:58:10.001Z,1.10
2023-03-27T02:00:51.878Z,3.22
2023-03-27T02:03:27.064Z,1.98
2023-03-27T02:06:33.523Z,1.63
2023-03-27T02:09:15.979Z,1.13
2023-03-27T02:12:16.690Z,1.88
2023-03-27T02:15:24.021Z,1.20
2023-03-27T02:20:44.810Z,1.95
2023-03-27T02:23:12.836Z,3.92
2023-03-27T02:25:44.794Z,1.65
2023-03-27T02:28:24.128Z,1.25
2023-03-27T02:31:07.107Z,1.15
2023-03-27T02:34:08.544Z,2.83
2023-03-27T02:36:51.194Z,3.60
2023-03-27T02:39:28.055Z,1.90
2023-03-27T02:42:00.970Z,2.03
2023-03-27T02:44:46.239Z,1.30
2023-03-27T02:47:42.847Z,2.22
2023-03-27T02:50:19.985Z,3.03
2023-03-27T02:52:53.756Z,1.25
2023-03-27T02:55:33.395Z,2.20
2023-03-27T02:58:07.979Z,1.25
2023-03-27T03:00:49.166Z,2.88
2023-03-27T03:03:39.745Z,1.60
2023-03-27T03:06:18.311Z,1.30
2023-03-27T03:08:46.950Z,2.38
2023-03-27T03:11:15.117Z,3.03
2023-03-27T03:13:42.316Z,1.80
2023-03-27T03:16:10.289Z,1.88
2023-03-27T03:18:37.344Z,1.77
2023-03-27T03:21:04.915Z,1.42
2023-03-27T03:23:34.236Z,2.93
2023-03-27T03:26:20.804Z,3.40
2023-03-27T03:29:01.092Z,1.52
2023-03-27T03:31:43.646Z,1.90
2023-03-27T03:34:19.108Z,1.45
2023-03-27T03:36:50.106Z,1.30
2023-03-27T03:39:23.363Z,2.92
2023-03-27T03:41:50.945Z,2.03
2023-03-27T03:44:18.808Z,1.40
2023-03-27T03:46:46.234Z,1.55
2023-03-27T03:49:13.264Z,2.35
2023-03-27T03:51:40.730Z,2.30
2023-03-27T03:54:09.365Z,2.90
2023-03-27T03:56:37.492Z,1.65
2023-03-27T03:59:04.503Z,1.45
2023-03-27T04:01:33.843Z,1.17
2023-03-27T04:04:02.830Z,2.30
2023-03-27T04:06:47.483Z,1.40
2023-03-27T04:09:14.699Z,1.38
2023-03-27T04:12:07.432Z,1.30
2023-03-27T04:14:54.719Z,1.55
2023-03-27T04:17:48.840Z,3.10
2023-03-27T04:20:17.495Z,1.30
2023-03-27T04:22:46.815Z,1.15
2023-03-27T04:25:17.812Z,1.00
2023-03-27T04:27:52.089Z,1.20
2023-03-27T04:33:20.417Z,0.85
2023-03-27T04:36:23.975Z,0.80
2023-03-27T04:38:59.891Z,0.70
2023-03-27T04:41:30.029Z,1.85
2023-03-27T04:43:57.362Z,2.95
2023-03-27T04:46:24.448Z,0.50
2023-03-27T04:48:58.184Z,0.63
2023-03-27T04:54:05.888Z,0.68
2023-03-27T04:56:35.377Z,0.50
2023-03-27T04:59:03.805Z,0.40
2023-03-27T05:01:31.093Z,0.68
2023-03-27T05:04:10.183Z,0.63
2023-03-27T05:06:49.275Z,1.80
2023-03-27T05:09:17.607Z,0.60
2023-03-27T05:11:49.721Z,0.57
2023-03-27T05:14:21.532Z,0.60
2023-03-27T05:16:50.798Z,0.90
2023-03-27T05:19:21.285Z,0.60
2023-03-27T05:21:57.609Z,0.88
2023-03-27T05:24:24.783Z,0.68
2023-03-27T05:26:51.888Z,1.02
2023-03-27T05:29:19.239Z,1.67
2023-03-27T05:31:50.820Z,0.80
2023-03-27T05:34:38.661Z,1.40
2023-03-27T05:37:10.313Z,0.90
2023-03-27T05:39:56.988Z,0.88
2023-03-27T05:42:24.052Z,1.67
2023-03-27T05:44:51.837Z,1.27
2023-03-27T05:47:21.015Z,1.15
2023-03-27T05:49:48.512Z,1.13
2023-03-27T05:52:16.141Z,1.60
2023-03-27T05:54:43.182Z,2.75
2023-03-27T05:57:12.055Z,2.10
2023-03-27T05:59:40.860Z,1.70
2023-03-27T06:02:22.353Z,1.25
2023-03-27T06:04:59.352Z,1.38
2023-03-27T06:07:43.266Z,2.20
2023-03-27T06:10:14.349Z,1.67
2023-03-27T06:12:46.383Z,2.35
2023-03-27T06:15:33.207Z,2.08
2023-03-27T06:18:11.269Z,2.05
2023-03-27T06:20:39.501Z,1.42
2023-03-27T06:23:08.372Z,3.78
2023-03-27T06:25:39.485Z,1.83
2023-03-27T06:28:09.707Z,1.75
2023-03-27T06:30:43.188Z,1.25
2023-03-27T06:33:25.957Z,1.27
2023-03-27T06:35:53.840Z,1.37
2023-03-27T06:38:32.489Z,1.42
2023-03-27T06:41:01.147Z,1.17
2023-03-27T06:43:46.596Z,3.42
2023-03-27T06:46:32.249Z,3.63
2023-03-27T06:49:19.007Z,3.70
2023-03-27T06:51:49.477Z,3.67
2023-03-27T06:56:50.572Z,2.28
2023-03-27T06:59:21.912Z,1.70
2023-03-27T07:01:54.470Z,2.65
2023-03-27T07:05:03.731Z,2.70
2023-03-27T07:07:41.053Z,2.72
2023-03-27T07:10:11.356Z,6.00
2023-03-27T07:12:40.412Z,5.40
2023-03-27T07:15:08.657Z,4.45
2023-03-27T07:17:48.145Z,4.25
2023-03-27T07:20:17.906Z,3.17
2023-03-27T07:22:44.948Z,4.22
2023-03-27T07:25:22.758Z,3.85
2023-03-27T07:27:51.301Z,5.05
2023-03-27T07:30:18.531Z,3.97
2023-03-27T07:32:47.273Z,3.00
2023-03-27T07:38:42.347Z,3.10
2023-03-27T07:41:20.220Z,3.97
2023-03-27T07:43:59.360Z,3.63
2023-03-27T07:46:30.603Z,6.35
2023-03-27T07:49:02.736Z,6.30
2023-03-27T07:51:29.719Z,8.25
2023-03-27T07:53:58.968Z,5.32
2023-03-27T07:56:36.054Z,7.88
2023-03-27T07:59:22.165Z,8.32
2023-03-27T08:01:50.864Z,15.70
2023-03-27T08:04:20.488Z,6.75
2023-03-27T08:07:02.354Z,4.25
2023-03-27T08:09:30.107Z,5.75
2023-03-27T08:11:57.500Z,5.53
2023-03-27T08:14:26.572Z,5.07
2023-03-27T08:17:05.117Z,8.57
2023-03-27T08:19:40.269Z,3.63
2023-03-27T08:22:07.391Z,4.05
2023-03-27T08:24:49.578Z,3.42
2023-03-27T08:27:23.787Z,4.78
2023-03-27T08:29:51.849Z,3.25
2023-03-27T08:32:18.911Z,3.88
2023-03-27T08:34:48.180Z,6.13
2023-03-27T08:37:20.518Z,3.70
2023-03-27T08:40:14.993Z,7.60
2023-03-27T08:42:46.520Z,2.92
2023-03-27T08:45:55.854Z,4.57
2023-03-27T08:48:48.553Z,4.68
2023-03-27T08:51:26.434Z,4.72
2023-03-27T08:54:17.651Z,4.15
2023-03-27T08:56:46.797Z,4.53
2023-03-27T08:59:19.386Z,4.82
2023-03-27T09:02:10.456Z,5.75
2023-03-27T09:04:48.987Z,6.50
2023-03-27T09:07:24.810Z,8.55
2023-03-27T09:10:23.699Z,9.35
2023-03-27T09:13:14.360Z,8.27
2023-03-27T09:15:58.751Z,7.43
2023-03-27T09:18:33.483Z,11.30
2023-03-27T09:21:38.566Z,8.55
2023-03-27T09:24:27.443Z,12.32
2023-03-27T09:27:25.206Z,6.95
2023-03-27T09:30:24.390Z,8.77
2023-03-27T09:33:06.439Z,5.95
2023-03-27T09:35:35.759Z,8.63
2023-03-27T09:38:14.841Z,8.85
2023-03-27T09:41:02.666Z,5.50
2023-03-27T09:43:55.807Z,5.72
2023-03-27T09:46:46.748Z,8.25
2023-03-27T09:49:17.223Z,8.95
2023-03-27T09:51:59.605Z,10.00
2023-03-27T09:54:56.391Z,6.07
2023-03-27T09:57:36.419Z,11.55
2023-03-27T10:00:31.220Z,7.55
2023-03-27T10:03:11.707Z,8.13
2023-03-27T10:05:39.901Z,5.68
2023-03-27T10:08:37.938Z,9.27
2023-03-27T10:11:31.303Z,6.68
2023-03-27T10:14:16.440Z,7.82
2023-03-27T10:16:46.290Z,7.50
2023-03-27T10:19:31.254Z,5.38
2023-03-27T10:22:42.472Z,8.38
2023-03-27T10:25:21.890Z,15.37
2023-03-27T10:28:16.568Z,12.27
2023-03-27T10:31:05.207Z,6.70
2023-03-27T10:33:46.369Z,5.50
2023-03-27T10:36:35.946Z,6.07
2023-03-27T10:39:13.899Z,7.38
2023-03-27T10:41:55.642Z,8.35
2023-03-27T10:44:26.123Z,7.25
2023-03-27T10:46:57.050Z,7.78
2023-03-27T10:49:44.555Z,9.05
2023-03-27T10:52:28.190Z,4.20
2023-03-27T10:55:54.623Z,4.32
2023-03-27T10:58:30.973Z,6.25
2023-03-27T11:01:06.410Z,5.93
2023-03-27T11:03:54.410Z,6.60
2023-03-27T11:06:28.846Z,8.07
2023-03-27T11:09:05.953Z,5.50
2023-03-27T11:11:45.110Z,5.57
2023-03-27T11:14:21.351Z,3.72
2023-03-27T11:16:55.909Z,5.65
2023-03-27T11:19:54.836Z,8.40
2023-03-27T11:22:59.568Z,4.45
2023-03-27T11:25:47.050Z,3.40
2023-03-27T11:28:39.822Z,4.65
2023-03-27T11:31:21.577Z,3.50
2023-03-27T11:34:28.752Z,5.10
2023-03-27T11:37:20.414Z,2.17
2023-03-27T11:39:56.396Z,5.18
2023-03-27T11:42:29.486Z,6.60
2023-03-27T11:44:57.271Z,5.22
2023-03-27T11:48:00.071Z,7.43
2023-03-27T11:50:44.560Z,6.20
2023-03-27T11:53:46.391Z,6.78
2023-03-27T11:56:37.784Z,5.80
2023-03-27T11:59:48.176Z,7.00
2023-03-27T12:02:46.743Z,3.10
2023-03-27T12:05:27.761Z,9.20
2023-03-27T12:08:09.178Z,11.63
2023-03-27T12:10:39.331Z,4.75
2023-03-27T12:13:41.777Z,12.35
2023-03-27T12:16:58.952Z,6.90
2023-03-27T12:19:51.982Z,2.85
2023-03-27T12:22:50.669Z,4.93
2023-03-27T12:26:03.941Z,2.53
2023-03-27T12:28:49.946Z,2.50
2023-03-27T12:32:08.926Z,7.57
2023-03-27T12:35:00.524Z,10.57
2023-03-27T12:37:47.833Z,2.85
2023-03-27T12:40:37.715Z,2.65
2023-03-27T12:43:22.079Z,1.92
2023-03-27T12:46:35.270Z,2.08
2023-03-27T12:49:10.834Z,1.88
2023-03-27T12:51:54.728Z,3.60
2023-03-27T12:54:39.359Z,2.25
2023-03-27T12:57:25.101Z,0.90
2023-03-27T12:59:59.942Z,0.77
2023-03-27T13:02:46.339Z,0.43
2023-03-27T13:05:36.430Z,1.65
2023-03-27T13:08:16.368Z,3.50
2023-03-27T13:11:19.338Z,4.13
2023-03-27T13:14:08.455Z,5.63
2023-03-27T13:16:50.495Z,3.08
2023-03-27T13:19:39.732Z,2.15
2023-03-27T13:22:39.635Z,1.23
2023-03-27T13:25:17.949Z,1.00
2023-03-27T13:28:27.414Z,1.90
2023-03-27T13:31:44.745Z,1.02
2023-03-27T13:34:27.636Z,0.68
2023-03-27T13:37:07.906Z,1.75
2023-03-27T13:39:47.434Z,0.50
2023-03-27T13:42:39.739Z,2.38
2023-03-27T13:45:19.239Z,0.90
2023-03-27T13:48:25.786Z,2.28
2023-03-27T13:51:23.425Z,1.10
2023-03-27T13:53:59.755Z,5.93
2023-03-27T13:57:00.487Z,0.70
2023-03-27T14:00:03.350Z,1.58
2023-03-27T14:02:48.536Z,1.85
2023-03-27T14:05:59.795Z,3.35
2023-03-27T14:08:44.877Z,2.05
2023-03-27T14:12:05.197Z,0.98
2023-03-27T14:15:21.161Z,0.45
2023-03-27T14:18:21.738Z,0.98
2023-03-27T14:21:00.869Z,1.88
2023-03-27T14:23:47.417Z,1.48
2023-03-27T14:26:25.811Z,0.95
2023-03-27T14:28:58.988Z,2.63
2023-03-27T14:31:44.503Z,3.38
2023-03-27T14:34:47.276Z,1.10
2023-03-27T14:37:37.091Z,2.22
2023-03-27T14:40:20.431Z,1.13
2023-03-27T14:42:50.596Z,2.40
2023-03-27T14:45:24.235Z,1.25
2023-03-27T14:48:04.979Z,1.00
2023-03-27T14:50:42.798Z,1.77
2023-03-27T14:53:16.941Z,2.23
2023-03-27T14:56:20.956Z,1.10
2023-03-27T14:59:04.772Z,1.92
2023-03-27T15:01:50.220Z,1.85
2023-03-27T15:04:17.934Z,1.30
2023-03-27T15:06:50.091Z,3.35
2023-03-27T15:09:37.605Z,2.30
2023-03-27T15:12:24.225Z,2.45
2023-03-27T15:14:53.119Z,0.95
2023-03-27T15:17:20.891Z,2.15
2023-03-27T15:20:17.069Z,5.15
2023-03-27T15:22:49.023Z,2.22
2023-03-27T15:25:32.229Z,1.15
2023-03-27T15:28:06.220Z,2.88
2023-03-27T15:30:40.665Z,2.05
2023-03-27T15:33:17.525Z,4.18
2023-03-27T15:35:48.247Z,1.75
2023-03-27T15:38:17.354Z,2.28
2023-03-27T15:40:46.897Z,2.88
2023-03-27T15:43:13.922Z,2.97
2023-03-27T15:46:10.598Z,2.10
2023-03-27T15:48:40.985Z,2.38
2023-03-27T15:51:11.606Z,2.08
2023-03-27T15:53:38.585Z,2.05
2023-03-27T15:56:24.061Z,2.00
2023-03-27T15:59:08.458Z,3.00
2023-03-27T16:01:41.306Z,1.85
2023-03-27T16:04:15.927Z,1.85
2023-03-27T16:06:51.311Z,2.80
2023-03-27T16:09:27.237Z,3.63
2023-03-27T16:11:57.278Z,1.63
2023-03-27T16:14:50.065Z,1.48
2023-03-27T16:17:25.342Z,3.08
2023-03-27T16:20:21.879Z,1.88
2023-03-27T16:22:49.035Z,4.20
2023-03-27T16:25:16.651Z,2.42
2023-03-27T16:27:59.339Z,3.88
2023-03-27T16:30:42.413Z,3.65
2023-03-27T16:33:17.932Z,3.88
2023-03-27T16:35:45.819Z,1.83
2023-03-27T16:38:14.129Z,2.58
2023-03-27T16:40:42.101Z,2.97
2023-03-27T16:43:09.679Z,2.05
2023-03-27T16:45:39.903Z,6.65
2023-03-27T16:48:08.617Z,2.35
2023-03-27T16:50:35.757Z,1.92
2023-03-27T16:53:03.019Z,4.57
2023-03-27T16:55:30.179Z,1.17
2023-03-27T16:57:57.233Z,3.10
2023-03-27T17:00:24.565Z,2.83
2023-03-27T17:02:51.582Z,3.95
2023-03-27T17:05:18.952Z,6.07
2023-03-27T17:07:47.039Z,3.65
2023-03-27T17:10:14.524Z,6.20
2023-03-27T17:12:41.928Z,1.98
2023-03-27T17:15:09.608Z,3.45
2023-03-27T17:17:36.704Z,0.95
2023-03-27T17:20:06.363Z,2.38
2023-03-27T17:22:33.821Z,4.75
2023-03-27T17:25:02.649Z,5.03
2023-03-27T17:27:29.974Z,7.05
2023-03-27T17:29:57.733Z,2.78
2023-03-27T17:32:26.280Z,3.97
2023-03-27T17:34:53.987Z,6.60
2023-03-27T17:37:22.520Z,3.08
2023-03-27T17:39:49.986Z,3.95
2023-03-27T17:42:17.036Z,6.00
2023-03-27T17:44:45.433Z,2.60
2023-03-27T17:47:13.279Z,3.95
2023-03-27T17:49:41.380Z,3.05
2023-03-27T17:52:11.510Z,3.95
2023-03-27T17:54:38.933Z,3.22
2023-03-27T17:57:06.420Z,3.15
2023-03-27T17:59:33.623Z,5.38
2023-03-27T18:02:02.653Z,3.55
2023-03-27T18:04:29.966Z,5.47
2023-03-27T18:06:57.163Z,8.18
2023-03-27T18:09:24.111Z,9.52
2023-03-27T18:11:51.417Z,8.85
2023-03-27T18:14:18.466Z,8.25
2023-03-27T18:16:45.681Z,6.75
2023-03-27T18:19:13.578Z,5.88
2023-03-27T18:21:40.742Z,4.70
2023-03-27T18:24:08.396Z,3.58
2023-03-27T18:26:35.571Z,3.22
2023-03-27T18:29:02.944Z,1.92
2023-03-27T18:31:30.894Z,2.75
2023-03-27T18:33:57.888Z,2.10
2023-03-27T18:36:24.904Z,4.03
2023-03-27T18:38:52.332Z,3.97
2023-03-27T18:41:19.342Z,1.88
2023-03-27T18:43:47.006Z,2.28
2023-03-27T18:46:17.284Z,2.75
2023-03-27T18:51:12.800Z,4.30
2023-03-27T18:53:40.118Z,2.60
2023-03-27T18:56:08.265Z,1.70
2023-03-27T18:58:36.191Z,3.88
2023-03-27T19:01:09.155Z,2.33
2023-03-27T19:03:37.292Z,3.25
2023-03-27T19:06:06.607Z,4.60
2023-03-27T19:08:35.740Z,6.80
2023-03-27T19:11:02.813Z,2.90
2023-03-27T19:13:48.733Z,3.58
2023-03-27T19:16:35.095Z,5.05
2023-03-27T19:19:27.118Z,5.35
2023-03-27T19:21:54.766Z,3.55
2023-03-27T19:24:43.848Z,3.25
2023-03-27T19:27:23.584Z,2.40
2023-03-27T19:29:52.523Z,2.88
2023-03-27T19:32:19.694Z,3.38
2023-03-27T19:34:47.506Z,4.00
2023-03-27T19:37:14.545Z,4.22
2023-03-27T19:39:41.563Z,4.13
2023-03-27T19:42:08.612Z,2.80
2023-03-27T19:44:41.204Z,3.47
2023-03-27T19:47:09.810Z,2.63
2023-03-27T19:49:37.062Z,3.78
2023-03-27T19:52:30.796Z,2.70
2023-03-27T19:54:58.128Z,6.07
2023-03-27T19:57:26.834Z,6.70
2023-03-27T19:59:53.921Z,5.45
2023-03-27T20:02:21.153Z,5.78
2023-03-27T20:04:49.608Z,4.15
2023-03-27T20:07:19.418Z,5.00
2023-03-27T20:09:46.566Z,3.28
2023-03-27T20:12:13.616Z,4.13
2023-03-27T20:14:40.734Z,3.80
2023-03-27T20:17:12.120Z,3.03
2023-03-27T20:19:49.177Z,3.83
2023-03-27T20:22:20.701Z,7.00
2023-03-27T20:24:48.814Z,3.20
2023-03-27T20:27:19.915Z,2.97
2023-03-27T20:29:47.441Z,3.65
2023-03-27T20:32:15.144Z,3.35
2023-03-27T20:34:42.633Z,2.95
2023-03-27T20:37:12.436Z,2.60
2023-03-27T20:40:07.543Z,3.28
2023-03-27T20:42:39.164Z,3.72
2023-03-27T20:45:07.063Z,3.42
2023-03-27T20:47:39.441Z,4.10
2023-03-27T20:50:07.251Z,3.25
2023-03-27T20:52:34.635Z,3.50
2023-03-27T20:55:02.226Z,4.82
2023-03-27T20:57:31.061Z,3.42
2023-03-27T20:59:58.115Z,3.20
2023-03-27T21:02:25.668Z,6.07
2023-03-27T21:04:53.244Z,5.30
2023-03-27T21:07:20.672Z,4.30
2023-03-27T21:09:47.741Z,3.95
2023-03-27T21:12:15.026Z,5.13
2023-03-27T21:14:42.203Z,5.78
2023-03-27T21:17:12.032Z,4.75
2023-03-27T21:19:39.026Z,5.05
2023-03-27T21:22:06.154Z,6.15
2023-03-27T21:24:33.134Z,5.10
2023-03-27T21:27:00.261Z,4.32
2023-03-27T21:29:27.432Z,6.32
2023-03-27T21:31:54.484Z,7.10
2023-03-27T21:34:27.912Z,6.65
2023-03-27T21:36:55.041Z,4.80
2023-03-27T21:39:22.099Z,5.55
2023-03-27T21:41:49.125Z,5.25
2023-03-27T21:44:16.164Z,4.80
2023-03-27T21:46:43.465Z,4.68
2023-03-27T21:49:10.486Z,6.93
2023-03-27T21:51:37.553Z,3.97
2023-03-27T21:54:04.648Z,4.13
2023-03-27T21:56:31.803Z,5.35
2023-03-27T21:58:59.089Z,5.40
2023-03-27T22:01:26.327Z,6.25
2023-03-27T22:03:53.889Z,3.38
2023-03-27T22:06:21.195Z,4.75
2023-03-27T22:08:48.171Z,4.68
2023-03-27T22:11:15.257Z,5.05
2023-03-27T22:13:43.742Z,7.57
2023-03-27T22:16:16.545Z,3.75
2023-03-27T22:18:44.548Z,3.22
2023-03-27T22:21:20.266Z,3.72
2023-03-27T22:23:49.135Z,4.25
2023-03-27T22:26:19.976Z,3.67
2023-03-27T22:28:47.162Z,3.05
2023-03-27T22:31:14.601Z,4.22
2023-03-27T22:33:41.987Z,2.72
2023-03-27T22:36:11.224Z,4.03
2023-03-27T22:38:39.220Z,4.00
2023-03-27T22:41:08.945Z,4.88
2023-03-27T22:43:36.072Z,3.35
2023-03-27T22:46:07.052Z,2.90
2023-03-27T22:48:34.629Z,2.75
2023-03-27T22:51:01.763Z,6.53
2023-03-27T22:53:28.902Z,3.90
2023-03-27T22:55:57.724Z,4.50
2023-03-27T22:58:28.334Z,2.30
2023-03-27T23:00:55.876Z,3.80
2023-03-27T23:03:24.283Z,4.38
2023-03-27T23:05:52.216Z,2.70
2023-03-27T23:08:20.584Z,3.00
2023-03-27T23:10:55.574Z,3.63
2023-03-27T23:13:23.274Z,3.60
2023-03-27T23:15:52.020Z,4.72
2023-03-27T23:18:23.982Z,4.07
2023-03-27T23:21:02.597Z,2.80
2023-03-27T23:23:31.445Z,5.38
2023-03-27T23:26:00.311Z,25.75
2023-03-27T23:28:31.438Z,4.75
2023-03-27T23:31:01.373Z,4.32
2023-03-27T23:33:29.731Z,5.20
2023-03-27T23:36:06.790Z,4.72
2023-03-27T23:38:34.174Z,5.07
2023-03-27T23:41:02.147Z,4.20
2023-03-27T23:43:30.783Z,3.42
2023-03-27T23:46:01.493Z,5.90
2023-03-27T23:48:29.576Z,3.55
2023-03-27T23:50:57.833Z,4.97
2023-03-27T23:53:26.749Z,5.85
2023-03-27T23:55:56.381Z,6.13
2023-03-27T23:58:24.490Z,3.90
